Time;durP1;ratioP1;P1;durP2;ratioP2;P2;SDS_P1;SDS_P2;PMS_P1;PMS_P2;Temp;Humidity;BMP_temperature;BMP_pressure;BME280_temperature;BME280_humidity;BME280_pressure;Samples;Min_cycle;Max_cycle;Signal;HPM_P1;HPM_P2
2024/04/09 00:00:28;;;;;;;15.07;2.42;;;;;;;8.80;100.00;100808.31;5560150;25;20004;-78
2024/04/09 00:02:54;;;;;;;12.55;2.22;;;;;;;8.75;100.00;100826.00;5528022;25;20041;-83
2024/04/09 00:05:19;;;;;;;15.90;2.55;;;;;;;8.77;100.00;100835.50;5527844;25;20440;-72
2024/04/09 00:07:46;;;;;;;15.80;2.63;;;;;;;8.74;100.00;100830.53;5527424;25;20037;-83
2024/04/09 00:10:13;;;;;;;17.73;2.33;;;;;;;8.72;100.00;100827.19;5560732;25;20263;-82
2024/04/09 00:12:38;;;;;;;16.08;2.97;;;;;;;8.57;100.00;100810.28;5527298;25;19993;-82
2024/04/09 00:15:07;;;;;;;16.15;2.65;;;;;;;8.46;100.00;100800.84;5560684;25;20015;-84
2024/04/09 00:17:44;;;;;;;16.33;2.70;;;;;;;8.67;100.00;100840.31;5560098;25;19996;-76
2024/04/09 00:20:17;;;;;;;13.13;2.63;;;;;;;8.62;100.00;100837.38;5498971;25;20413;-83
2024/04/09 00:22:45;;;;;;;15.82;2.53;;;;;;;8.56;100.00;100852.34;5559520;25;20155;-84
2024/04/09 00:25:12;;;;;;;16.08;2.75;;;;;;;8.52;100.00;100850.25;5560689;25;20000;-74
2024/04/09 00:27:39;;;;;;;16.45;2.40;;;;;;;8.27;100.00;100818.28;5526813;25;20003;-83
2024/04/09 00:30:06;;;;;;;14.65;2.55;;;;;;;8.46;100.00;100841.91;5527685;25;20601;-80
2024/04/09 00:32:32;;;;;;;19.00;2.40;;;;;;;8.35;100.00;100810.16;5559957;25;20431;-78
2024/04/09 00:34:58;;;;;;;18.80;3.30;;;;;;;8.41;100.00;100830.06;5527000;25;20066;-83
2024/04/09 00:37:24;;;;;;;14.43;3.28;;;;;;;8.40;100.00;100829.22;5527461;25;20088;-77
2024/04/09 00:39:49;;;;;;;18.52;3.03;;;;;;;8.42;100.00;100827.19;5527320;25;20005;-85
2024/04/09 00:42:15;;;;;;;21.73;2.97;;;;;;;8.35;100.00;100815.53;5527035;25;19996;-84
2024/04/09 00:44:40;;;;;;;11.52;2.38;;;;;;;8.37;100.00;100815.31;5525969;25;20011;-83
2024/04/09 00:47:08;;;;;;;15.25;3.00;;;;;;;8.28;100.00;100801.19;5527318;25;20065;-82
2024/04/09 00:49:34;;;;;;;16.90;2.90;;;;;;;8.15;100.00;100787.59;5559563;25;20011;-84
2024/04/09 00:52:00;;;;;;;15.55;2.78;;;;;;;8.19;100.00;100802.28;5525956;25;20000;-85
2024/04/09 00:54:27;;;;;;;13.98;2.97;;;;;;;8.17;100.00;100812.34;5526494;25;20000;-85
2024/04/09 00:56:55;;;;;;;17.75;2.95;;;;;;;7.75;100.00;100758.34;5526473;25;20007;-74
2024/04/09 00:59:21;;;;;;;13.85;2.65;;;;;;;8.10;100.00;100816.78;5561383;25;19989;-84
2024/04/09 01:01:48;;;;;;;17.73;3.63;;;;;;;8.05;100.00;100816.50;5530324;25;20443;-85
2024/04/09 01:04:15;;;;;;;14.80;2.90;;;;;;;7.98;100.00;100806.53;5530542;25;20351;-81
2024/04/09 01:06:42;;;;;;;12.98;2.53;;;;;;;7.93;100.00;100805.38;5499806;25;19993;-82
2024/04/09 01:09:08;;;;;;;15.70;2.88;;;;;;;7.15;100.00;100673.53;5563219;25;19992;-85
2024/04/09 01:11:34;;;;;;;18.75;3.67;;;;;;;7.95;100.00;100798.03;5499523;25;19989;-84
2024/04/09 01:13:59;;;;;;;14.70;2.83;;;;;;;7.98;100.00;100809.19;5562710;25;20026;-82
2024/04/09 01:16:25;;;;;;;14.48;3.13;;;;;;;8.06;100.00;100815.50;5499374;25;20003;-82
2024/04/09 01:18:50;;;;;;;15.85;3.13;;;;;;;8.13;100.00;100811.06;5529940;25;20364;-75
2024/04/09 01:21:15;;;;;;;17.35;3.17;;;;;;;8.17;100.00;100802.47;5529960;25;20001;-82
2024/04/09 01:23:41;;;;;;;20.92;3.38;;;;;;;8.17;100.00;100790.91;5529621;25;20004;-84
2024/04/09 01:26:09;;;;;;;16.60;3.03;;;;;;;8.31;100.00;100811.56;5562487;25;20053;-82
2024/04/09 01:28:36;;;;;;;18.92;4.10;;;;;;;8.30;100.00;100803.69;5499498;25;20032;-84
2024/04/09 01:31:01;;;;;;;16.88;3.58;;;;;;;8.29;100.00;100785.94;5529732;25;20017;-86
2024/04/09 01:33:27;;;;;;;19.02;3.33;;;;;;;8.39;100.00;100800.75;5529588;25;20185;-79
2024/04/09 01:35:54;;;;;;;19.77;3.78;;;;;;;8.19;100.00;100770.13;5562853;25;19993;-79
2024/04/09 01:38:19;;;;;;;18.13;3.20;;;;;;;8.22;100.00;100772.44;5529712;25;20004;-86
2024/04/09 01:40:46;;;;;;;15.55;3.67;;;;;;;8.39;100.00;100802.59;5498860;25;20060;-83
2024/04/09 01:43:12;;;;;;;20.65;3.50;;;;;;;8.36;100.00;100800.25;5562907;25;20060;-83
2024/04/09 01:45:37;;;;;;;13.93;3.25;;;;;;;8.40;100.00;100804.25;5562565;25;20228;-79
2024/04/09 01:48:04;;;;;;;16.10;3.53;;;;;;;8.24;100.00;100791.84;5499704;25;20007;-79
2024/04/09 01:50:31;;;;;;;18.00;3.72;;;;;;;8.40;100.00;100801.59;5530686;25;20422;-84
2024/04/09 01:52:56;;;;;;;19.23;4.45;;;;;;;8.39;100.00;100816.84;5530066;25;19997;-84
2024/04/09 01:55:22;;;;;;;19.15;3.42;;;;;;;8.36;100.00;100811.81;5498615;25;20081;-85
2024/04/09 01:57:48;;;;;;;19.98;3.58;;;;;;;7.93;100.00;100744.59;5528668;25;20004;-85
2024/04/09 02:00:24;;;;;;;17.77;3.50;;;;;;;8.10;100.00;100779.25;5528870;25;19996;-84
2024/04/09 02:02:53;;;;;;;17.27;3.75;;;;;;;8.29;100.00;100812.75;5563146;25;20353;-84
2024/04/09 02:05:20;;;;;;;22.23;3.80;;;;;;;8.09;100.00;100799.06;5562584;25;20012;-86
2024/04/09 02:07:46;;;;;;;24.60;3.58;;;;;;;8.12;100.00;100815.59;5530163;25;19992;-82
2024/04/09 02:10:11;;;;;;;18.98;3.95;;;;;;;8.05;100.00;100821.88;5528661;25;19996;-82
2024/04/09 02:12:38;;;;;;;20.23;3.88;;;;;;;8.02;100.00;100825.75;5562504;25;20329;-72
2024/04/09 02:15:04;;;;;;;15.57;3.22;;;;;;;7.84;100.00;100812.66;5529938;25;20005;-84
2024/04/09 02:17:30;;;;;;;18.80;3.72;;;;;;;7.94;100.00;100829.31;5561732;25;19997;-82
2024/04/09 02:19:56;;;;;;;17.33;3.60;;;;;;;7.91;100.00;100829.69;5559192;25;19989;-85
2024/04/09 02:22:21;;;;;;;15.55;4.05;;;;;;;7.90;100.00;100836.06;5562237;25;20008;-85
2024/04/09 02:24:47;;;;;;;17.13;3.45;;;;;;;7.83;100.00;100840.47;5561890;25;19993;-85
2024/04/09 02:27:13;;;;;;;18.02;3.47;;;;;;;7.72;100.00;100824.84;5529433;25;19989;-84
2024/04/09 02:29:38;;;;;;;18.48;3.58;;;;;;;7.76;100.00;100826.13;5562355;25;20101;-83
2024/04/09 02:32:05;;;;;;;12.93;2.95;;;;;;;7.73;100.00;100816.59;5562186;25;19996;-85
2024/04/09 02:34:35;;;;;;;14.90;3.13;;;;;;;7.74;100.00;100820.94;5562074;25;20008;-86
2024/04/09 02:37:04;;;;;;;16.13;3.60;;;;;;;7.72;100.00;100816.81;5562358;25;19989;-82
2024/04/09 02:39:31;;;;;;;17.17;2.92;;;;;;;7.70;100.00;100824.19;5562093;25;19996;-85
2024/04/09 02:41:56;;;;;;;14.40;3.65;;;;;;;7.61;100.00;100815.34;5479869;26;19997;-82
2024/04/09 02:44:22;;;;;;;16.70;2.88;;;;;;;7.69;100.00;100831.38;5461444;26;19994;-85
2024/04/09 02:46:49;;;;;;;16.52;2.75;;;;;;;7.67;100.00;100838.75;5523674;26;20459;-83
2024/04/09 02:49:15;;;;;;;16.60;3.05;;;;;;;7.63;100.00;100829.41;5491922;26;20288;-84
2024/04/09 02:51:40;;;;;;;22.77;3.75;;;;;;;7.58;100.00;100828.28;5491662;26;20434;-84
2024/04/09 02:54:06;;;;;;;22.13;3.38;;;;;;;7.32;100.00;100781.31;5493606;25;20004;-72
2024/04/09 02:56:31;;;;;;;18.73;3.30;;;;;;;7.56;100.00;100819.59;5540874;25;20011;-72
2024/04/09 02:58:57;;;;;;;17.83;3.00;;;;;;;7.53;100.00;100816.25;5508488;26;19994;-86
2024/04/09 03:01:22;;;;;;;20.08;3.60;;;;;;;7.53;100.00;100810.09;5540649;25;19997;-77
2024/04/09 03:03:49;;;;;;;14.35;3.00;;;;;;;7.54;100.00;100801.84;5540859;25;19993;-73
2024/04/09 03:06:16;;;;;;;13.70;3.17;;;;;;;7.53;100.00;100799.38;5502552;26;20006;-72
2024/04/09 03:08:42;;;;;;;21.90;3.00;;;;;;;7.52;100.00;100803.91;5528770;25;20057;-71
2024/04/09 03:11:16;;;;;;;12.98;2.90;;;;;;;7.51;100.00;100804.88;5494092;26;19994;-81
2024/04/09 03:13:42;;;;;;;12.98;2.83;;;;;;;7.35;100.00;100778.28;5492121;26;20021;-80
2024/04/09 03:16:16;;;;;;;16.42;3.33;;;;;;;7.50;100.00;100805.09;5523818;26;20432;-82
2024/04/09 03:18:42;;;;;;;15.97;2.93;;;;;;;7.52;100.00;100801.22;5523851;25;19993;-81
2024/04/09 03:21:08;;;;;;;12.02;3.00;;;;;;;7.52;100.00;100798.53;5523970;26;20008;-83
2024/04/09 03:23:34;;;;;;;14.48;3.40;;;;;;;7.51;100.00;100796.03;5522397;25;20030;-81
2024/04/09 03:26:00;;;;;;;15.85;3.20;;;;;;;7.46;100.00;100796.56;5524035;26;19997;-86
2024/04/09 03:28:25;;;;;;;17.38;3.42;;;;;;;7.51;100.00;100804.06;5523651;25;19997;-85
2024/04/09 03:30:57;;;;;;;16.60;3.00;;;;;;;7.34;100.00;100776.59;5491234;26;20004;-86
2024/04/09 03:33:23;;;;;;;18.40;3.25;;;;;;;7.45;100.00;100804.78;5523237;26;19998;-86
2024/04/09 03:35:57;;;;;;;16.40;3.20;;;;;;;7.37;100.00;100815.56;5461178;26;20005;-77
2024/04/09 03:38:23;;;;;;;14.10;2.80;;;;;;;7.27;100.00;100811.25;5491430;26;20021;-86
2024/04/09 03:40:53;;;;;;;15.15;2.92;;;;;;;7.19;100.00;100830.06;5523650;26;19998;-86
2024/04/09 03:43:19;;;;;;;17.20;3.05;;;;;;;7.04;100.00;100813.91;5523993;25;20037;-85
2024/04/09 03:45:57;;;;;;;16.98;2.95;;;;;;;7.03;100.00;100814.09;5523855;26;20073;-86
2024/04/09 03:48:23;;;;;;;13.73;2.45;;;;;;;7.13;100.00;100813.88;5523862;25;20065;-86
2024/04/09 03:50:48;;;;;;;16.52;2.80;;;;;;;6.92;100.00;100764.50;5491208;26;20021;-86
2024/04/09 03:53:14;;;;;;;16.17;3.30;;;;;;;7.10;100.00;100790.13;5491230;26;20053;-86
2024/04/09 03:55:39;;;;;;;15.95;2.97;;;;;;;7.12;100.00;100798.81;5523377;26;19998;-80
2024/04/09 03:58:05;;;;;;;17.17;3.33;;;;;;;7.07;100.00;100789.47;5523561;25;20086;-85
2024/04/09 04:00:30;;;;;;;16.27;3.03;;;;;;;6.96;100.00;100792.56;5523585;25;20349;-78
2024/04/09 04:02:56;;;;;;;20.73;3.40;;;;;;;6.62;100.00;100746.59;5523480;25;19998;-84
2024/04/09 04:05:21;;;;;;;14.88;3.20;;;;;;;6.73;100.00;100772.97;5459888;26;19997;-82
2024/04/09 04:07:46;;;;;;;13.18;2.63;;;;;;;6.63;100.00;100775.84;5522496;26;20005;-84
2024/04/09 04:10:13;;;;;;;17.05;3.10;;;;;;;6.50;100.00;100755.00;5523543;26;20004;-76
2024/04/09 04:12:39;;;;;;;17.67;3.42;;;;;;;6.70;100.00;100771.47;5491232;26;20009;-85
2024/04/09 04:15:05;;;;;;;18.83;3.35;;;;;;;6.82;100.00;100774.56;5431328;25;20336;-83
2024/04/09 04:17:30;;;;;;;17.00;3.40;;;;;;;6.80;100.00;100760.56;5492272;26;19994;-82
2024/04/09 04:19:55;;;;;;;22.98;3.58;;;;;;;7.06;100.00;100766.41;5492253;26;19997;-80
2024/04/09 04:22:21;;;;;;;17.77;2.92;;;;;;;7.20;100.00;100772.00;5524783;25;20005;-85
2024/04/09 04:24:46;;;;;;;22.63;3.47;;;;;;;7.17;100.00;100753.63;5492127;26;20024;-85
2024/04/09 04:27:12;;;;;;;23.67;3.25;;;;;;;7.40;100.00;100773.19;5490619;26;20528;-85
2024/04/09 04:29:37;;;;;;;18.75;3.20;;;;;;;7.42;100.00;100765.00;5492860;26;19997;-85
2024/04/09 04:32:04;;;;;;;19.23;3.60;;;;;;;7.25;100.00;100732.16;5501479;26;20766;-75
2024/04/09 04:34:30;;;;;;;16.95;2.97;;;;;;;7.60;100.00;100775.38;5446955;26;19989;-73
2024/04/09 04:36:56;;;;;;;25.52;3.25;;;;;;;7.36;100.00;100728.25;5507535;26;20001;-78
2024/04/09 04:39:26;;;;;;;16.42;3.70;;;;;;;7.36;100.00;100722.88;5504284;26;20039;-72
2024/04/09 04:41:51;;;;;;;17.73;3.05;;;;;;;7.53;100.00;100743.13;5506358;26;19993;-75
2024/04/09 04:44:17;;;;;;;21.65;3.35;;;;;;;7.53;100.00;100749.31;5502918;26;20357;-78
2024/04/09 04:46:44;;;;;;;22.92;3.80;;;;;;;7.71;100.00;100770.41;5536252;25;20061;-77
2024/04/09 04:49:12;;;;;;;18.27;2.85;;;;;;;7.50;100.00;100730.94;5474691;26;19993;-72
2024/04/09 04:51:38;;;;;;;21.30;3.40;;;;;;;7.77;100.00;100766.19;5504293;26;19997;-76
2024/04/09 04:54:03;;;;;;;20.60;3.30;;;;;;;7.83;100.00;100764.63;5472013;26;19994;-80
2024/04/09 04:56:30;;;;;;;15.85;3.00;;;;;;;7.87;100.00;100756.03;5498541;26;20004;-83
2024/04/09 04:58:55;;;;;;;17.50;3.00;;;;;;;7.94;100.00;100754.28;5530712;25;19997;-83
2024/04/09 05:01:20;;;;;;;18.52;3.45;;;;;;;8.54;100.00;100762.38;5466295;26;20010;-82
2024/04/09 05:03:46;;;;;;;17.98;3.72;;;;;;;9.27;100.00;100747.09;5494474;25;19994;-84
2024/04/09 05:06:12;;;;;;;17.67;3.28;;;;;;;9.64;100.00;100719.13;5503176;26;19990;-72
2024/04/09 05:08:38;;;;;;;14.32;2.90;;;;;;;10.35;100.00;100745.84;5501774;26;20061;-74
2024/04/09 05:11:08;;;;;;;18.80;3.55;;;;;;;10.70;100.00;100752.03;5469333;26;20312;-72
2024/04/09 05:13:33;;;;;;;20.48;3.30;;;;;;;11.11;100.00;100734.94;5497871;25;19993;-73
2024/04/09 05:15:59;;;;;;;15.52;3.22;;;;;;;11.50;100.00;100736.03;5499919;26;20009;-73
2024/04/09 05:18:24;;;;;;;17.20;3.13;;;;;;;11.69;100.00;100729.81;5468730;26;20012;-80
2024/04/09 05:21:02;;;;;;;13.50;2.47;;;;;;;11.87;100.00;100680.66;5471151;26;19993;-74
2024/04/09 05:26:55;;;;;;;13.88;3.08;;;;;;;11.52;100.00;100537.22;5534710;25;20000;-74
2024/04/09 05:29:38;;;;;;;15.00;2.35;;;;;;;12.70;100.00;100721.25;5415999;26;19999;-74
2024/04/09 05:32:18;;;;;;;12.90;2.70;;;;;;;12.66;100.00;100719.22;5411698;26;20387;-74
2024/04/09 05:35:32;;;;;;;15.05;2.60;;;;;;;12.89;100.00;100729.50;5380022;26;20464;-74
2024/04/09 05:37:58;;;;;;;10.80;2.70;;;;;;;12.53;100.00;100728.19;5379579;26;20370;-78
2024/04/09 05:40:26;;;;;;;12.23;2.78;;;;;;;11.61;100.00;100732.72;5350779;26;20453;-78
2024/04/09 05:42:58;;;;;;;14.25;2.50;;;;;;;10.68;100.00;100672.53;5349857;26;19988;-75
2024/04/09 05:45:31;;;;;;;13.40;2.80;;;;;;;9.74;100.00;100566.44;5379052;26;20002;-80
2024/04/09 05:47:57;;;;;;;15.65;2.97;;;;;;;10.55;100.00;100748.63;5379943;26;20073;-75
2024/04/09 05:50:22;;;;;;;17.58;2.72;;;;;;;10.38;100.00;100747.31;5294224;26;20394;-74
2024/04/09 05:52:48;;;;;;;14.77;2.80;;;;;;;10.31;100.00;100753.50;5380612;26;19996;-76
2024/04/09 05:55:13;;;;;;;16.58;2.78;;;;;;;10.19;100.00;100728.16;5322439;26;19992;-73
2024/04/09 05:57:39;;;;;;;18.20;3.40;;;;;;;10.40;100.00;100747.94;5322576;26;20350;-73
2024/04/09 06:00:13;;;;;;;16.55;3.47;;;;;;;10.45;100.00;100742.81;5390449;26;19990;-73
2024/04/09 06:02:41;;;;;;;16.40;3.30;;;;;;;10.37;100.00;100734.91;5488549;26;20019;-73
2024/04/09 06:05:06;;;;;;;13.65;3.17;;;;;;;10.10;100.00;100687.16;5488889;26;20009;-74
2024/04/09 06:07:32;;;;;;;21.63;3.22;;;;;;;10.40;100.00;100739.88;5488455;26;20503;-73
2024/04/09 06:09:58;;;;;;;18.67;3.08;;;;;;;10.42;100.00;100745.88;5427583;26;20467;-72
2024/04/09 06:12:23;;;;;;;19.60;3.22;;;;;;;10.44;100.00;100741.16;5456895;26;20416;-72
2024/04/09 06:14:52;;;;;;;19.90;3.10;;;;;;;10.41;100.00;100737.00;5457028;26;19989;-73
2024/04/09 06:17:18;;;;;;;15.25;3.10;;;;;;;10.51;100.00;100734.75;5487299;26;20462;-74
2024/04/09 06:19:43;;;;;;;19.67;3.03;;;;;;;10.58;100.00;100732.09;5487405;26;20001;-74
2024/04/09 06:22:08;;;;;;;15.73;2.80;;;;;;;10.67;100.00;100730.06;5487564;26;19993;-73
2024/04/09 06:24:34;;;;;;;16.10;3.10;;;;;;;10.67;100.00;100709.38;5463491;25;20008;-74
2024/04/09 06:26:59;;;;;;;20.95;2.38;;;;;;;10.88;100.00;100723.72;5533006;25;19989;-74
2024/04/09 06:29:25;;;;;;;21.58;2.97;;;;;;;10.89;100.00;100701.13;5501441;26;20008;-74
2024/04/09 06:31:50;;;;;;;15.60;2.88;;;;;;;11.06;100.00;100707.81;5470547;26;19997;-73
2024/04/09 06:34:16;;;;;;;16.58;2.58;;;;;;;11.03;100.00;100689.38;5501114;26;19989;-73
2024/04/09 06:36:41;;;;;;;9.25;2.22;;;;;;;11.09;100.00;100691.22;5470431;26;20057;-74
2024/04/09 06:39:07;;;;;;;13.82;2.67;;;;;;;11.31;100.00;100710.72;5533109;25;20016;-73
2024/04/09 06:41:32;;;;;;;13.88;2.10;;;;;;;11.42;100.00;100701.19;5501700;26;19985;-75
2024/04/09 06:43:58;;;;;;;16.98;2.30;;;;;;;11.29;100.00;100670.53;5532586;25;19990;-72
2024/04/09 06:46:23;;;;;;;12.00;2.10;;;;;;;11.59;100.00;100707.84;5466934;26;20001;-72
2024/04/09 06:48:49;;;;;;;11.75;2.05;;;;;;;11.70;100.00;100718.00;5494474;26;19989;-74
2024/04/09 06:51:15;;;;;;;10.52;2.08;;;;;;;11.73;100.00;100714.88;5463600;26;19989;-75
2024/04/09 06:53:41;;;;;;;13.63;2.50;;;;;;;11.81;100.00;100715.69;5494293;26;19989;-73
2024/04/09 06:56:06;;;;;;;14.25;2.38;;;;;;;11.79;100.00;100706.97;5526495;26;19990;-74
2024/04/09 06:58:32;;;;;;;11.93;2.40;;;;;;;11.75;100.00;100696.63;5492960;26;20000;-73
2024/04/09 07:00:57;;;;;;;12.05;2.45;;;;;;;11.93;100.00;100711.38;5526503;25;20061;-73
2024/04/09 07:03:24;;;;;;;12.50;2.35;;;;;;;11.98;100.00;100716.94;5527142;25;19985;-74
2024/04/09 07:05:49;;;;;;;15.43;2.47;;;;;;;12.01;100.00;100721.91;5494260;26;19991;-72
2024/04/09 07:08:14;;;;;;;13.05;2.40;;;;;;;12.06;100.00;100707.81;5494218;26;19989;-75
2024/04/09 07:10:40;;;;;;;15.45;2.72;;;;;;;11.74;100.00;100630.25;5526652;25;20445;-75
2024/04/09 07:13:05;;;;;;;12.27;1.90;;;;;;;12.27;100.00;100693.22;5526863;25;19989;-74
2024/04/09 07:15:31;;;;;;;10.93;2.17;;;;;;;12.34;100.00;100694.00;5494426;26;20063;-73
2024/04/09 07:17:56;;;;;;;17.48;2.85;;;;;;;12.42;100.00;100674.91;5464066;26;19993;-74
2024/04/09 07:20:23;;;;;;;15.35;2.45;;;;;;;12.56;100.00;100681.88;5464389;26;19993;-75
2024/04/09 07:22:48;;;;;;;9.82;2.17;;;;;;;12.50;100.00;100653.06;5494611;26;20001;-72
2024/04/09 07:25:14;;;;;;;11.02;2.03;;;;;;;12.71;100.00;100676.19;5463809;26;20084;-73
2024/04/09 07:27:39;;;;;;;11.15;1.83;;;;;;;12.66;100.00;100659.81;5527297;25;20023;-74
2024/04/09 07:30:06;;;;;;;11.45;2.25;;;;;;;12.73;100.00;100676.81;5527346;26;20469;-73
2024/04/09 07:32:31;;;;;;;14.55;2.13;;;;;;;12.87;100.00;100677.56;5494351;26;19993;-73
2024/04/09 07:34:57;;;;;;;12.55;2.20;;;;;;;12.90;100.00;100674.44;5494102;26;19989;-74
2024/04/09 07:37:23;;;;;;;13.10;2.50;;;;;;;12.93;100.00;100682.91;5494011;26;19993;-75
2024/04/09 07:39:49;;;;;;;10.80;2.30;;;;;;;13.09;100.00;100688.84;5494734;26;20065;-76
2024/04/09 07:42:15;;;;;;;11.00;2.10;;;;;;;13.14;100.00;100681.75;5525841;25;20004;-73
2024/04/09 07:44:40;;;;;;;10.88;1.85;;;;;;;13.17;100.00;100678.59;5492936;26;19989;-76
2024/04/09 07:47:10;;;;;;;8.13;1.90;;;;;;;13.30;100.00;100666.06;5525933;25;19993;-75
2024/04/09 07:49:36;;;;;;;7.85;2.65;;;;;;;13.46;100.00;100665.50;5494483;26;19989;-74
2024/04/09 07:52:01;;;;;;;10.85;2.08;;;;;;;13.64;100.00;100672.81;5493408;26;20033;-73
2024/04/09 07:54:27;;;;;;;7.47;1.95;;;;;;;13.53;100.00;100623.03;5526116;26;20277;-75
2024/04/09 07:56:52;;;;;;;8.40;2.10;;;;;;;14.03;100.00;100668.88;5491760;26;19997;-74
2024/04/09 07:59:18;;;;;;;7.03;1.60;;;;;;;14.26;100.00;100668.19;5525992;25;19989;-73
2024/04/09 08:01:43;;;;;;;7.38;2.10;;;;;;;14.31;100.00;100662.13;5525226;26;20065;-75
2024/04/09 08:04:08;;;;;;;11.77;1.40;;;;;;;14.40;100.00;100658.03;5493750;26;20008;-74
2024/04/09 08:06:34;;;;;;;13.07;1.88;;;;;;;13.81;100.00;100527.06;5494280;25;19993;-75
2024/04/09 08:09:00;;;;;;;9.85;1.42;;;;;;;14.73;100.00;100627.00;5496406;26;20023;-72
2024/04/09 08:11:25;;;;;;;14.98;1.70;;;;;;;15.00;100.00;100641.81;5498192;26;20000;-76
2024/04/09 08:13:51;;;;;;;6.30;1.40;;;;;;;15.30;100.00;100649.06;5497913;26;19997;-75
2024/04/09 08:16:16;;;;;;;6.40;1.35;;;;;;;15.25;100.00;100651.63;5468390;26;19993;-74
2024/04/09 08:18:42;;;;;;;5.90;1.10;;;;;;;15.34;100.00;100657.53;5498805;26;20005;-73
2024/04/09 08:21:10;;;;;;;7.28;1.70;;;;;;;15.12;100.00;100652.66;5530975;26;20000;-73
2024/04/09 08:23:35;;;;;;;9.73;1.50;;;;;;;14.99;100.00;100637.44;5498553;26;20332;-77
2024/04/09 08:26:00;;;;;;;3.92;1.40;;;;;;;15.08;100.00;100615.44;5499029;26;19989;-76
2024/04/09 08:28:26;;;;;;;6.32;1.50;;;;;;;15.25;100.00;100622.63;5498407;26;20003;-73
2024/04/09 08:30:52;;;;;;;8.60;1.30;;;;;;;15.09;100.00;100590.78;5498512;26;19990;-78
2024/04/09 08:33:17;;;;;;;5.57;1.38;;;;;;;15.24;100.00;100601.19;5497873;26;19989;-76
2024/04/09 08:35:48;;;;;;;5.82;1.40;;;;;;;15.20;100.00;100600.03;5498334;26;20021;-73
2024/04/09 08:38:14;;;;;;;3.33;1.25;;;;;;;15.25;100.00;100608.25;5529074;25;20069;-76
2024/04/09 08:40:39;;;;;;;3.90;1.10;;;;;;;15.35;100.00;100627.47;5468403;26;20013;-75
2024/04/09 08:43:05;;;;;;;4.68;1.23;;;;;;;15.46;100.00;100631.25;5468819;26;20000;-74
2024/04/09 08:45:31;;;;;;;4.05;1.27;;;;;;;15.50;100.00;100617.00;5531857;25;20004;-72
2024/04/09 08:47:59;;;;;;;7.72;1.27;;;;;;;15.34;100.00;100593.31;5498571;26;19994;-78
2024/04/09 08:50:25;;;;;;;5.30;1.40;;;;;;;15.80;100.00;100604.38;5532013;25;20012;-74
2024/04/09 08:52:52;;;;;;;7.13;1.30;;;;;;;15.89;100.00;100606.50;5530384;26;19993;-76
2024/04/09 08:55:19;;;;;;;4.38;1.00;;;;;;;15.88;100.00;100607.53;5531471;25;20492;-76
2024/04/09 08:57:45;;;;;;;4.10;1.38;;;;;;;15.96;100.00;100607.19;5531008;26;19993;-73
2024/04/09 09:00:10;;;;;;;3.35;0.98;;;;;;;16.06;100.00;100582.16;5499104;26;20002;-77
2024/04/09 09:02:36;;;;;;;3.55;1.02;;;;;;;16.32;100.00;100598.91;5468763;26;19989;-79
2024/04/09 09:05:02;;;;;;;4.75;1.17;;;;;;;16.12;100.00;100574.91;5499640;25;19990;-73
2024/04/09 09:07:29;;;;;;;3.70;1.05;;;;;;;16.06;100.00;100571.28;5498700;26;19997;-74
2024/04/09 09:10:06;;;;;;;9.77;1.20;;;;;;;15.82;100.00;100558.84;5500114;26;20009;-75
2024/04/09 09:12:31;;;;;;;6.57;1.50;;;;;;;15.92;100.00;100559.84;5469863;26;20475;-76
2024/04/09 09:15:00;;;;;;;4.75;1.05;;;;;;;15.97;100.00;100568.13;5531453;25;19992;-80
2024/04/09 09:17:26;;;;;;;3.78;1.20;;;;;;;16.03;100.00;100560.91;5499930;25;19990;-79
2024/04/09 09:20:09;;;;;;;10.32;1.20;;;;;;;15.85;100.00;100551.03;5498019;26;20016;-74
2024/04/09 09:22:46;;;;;;;6.28;1.35;;;;;;;16.01;100.00;100551.34;5531934;25;20004;-75
2024/04/09 09:25:16;;;;;;;4.13;1.27;;;;;;;15.79;100.00;100541.13;5532255;26;20001;-73
2024/04/09 09:27:43;;;;;;;4.60;1.27;;;;;;;15.92;100.00;100530.00;5529916;26;20005;-73
2024/04/09 09:30:09;;;;;;;4.85;1.30;;;;;;;16.07;100.00;100505.06;5530196;26;20453;-76
2024/04/09 09:32:39;;;;;;;5.55;1.35;;;;;;;16.13;100.00;100497.84;5531180;25;20004;-76
2024/04/09 09:35:12;;;;;;;7.25;1.30;;;;;;;16.26;100.00;100516.56;5498895;26;20004;-74
2024/04/09 09:37:38;;;;;;;4.78;1.33;;;;;;;16.23;100.00;100527.09;5498529;26;20005;-74
2024/04/09 09:40:07;;;;;;;5.90;1.40;;;;;;;16.32;100.00;100531.84;5499221;26;20448;-77
2024/04/09 09:42:34;;;;;;;5.57;1.30;;;;;;;16.25;100.00;100544.75;5469738;26;20000;-76
2024/04/09 09:45:03;;;;;;;5.75;1.20;;;;;;;16.19;100.00;100553.88;5531977;25;20357;-76
2024/04/09 09:47:32;;;;;;;5.50;1.33;;;;;;;16.20;100.00;100550.09;5498565;26;20440;-73
2024/04/09 09:49:59;;;;;;;3.92;1.40;;;;;;;16.21;100.00;100543.59;5498524;26;19997;-76
2024/04/09 09:52:24;;;;;;;5.28;1.15;;;;;;;15.78;100.00;100493.38;5498628;26;20197;-77
2024/04/09 09:54:50;;;;;;;4.90;1.00;;;;;;;15.90;100.00;100526.72;5498238;26;20001;-75
2024/04/09 09:57:21;;;;;;;6.60;1.20;;;;;;;15.90;100.00;100537.59;5438246;26;20007;-78
2024/04/09 09:59:56;;;;;;;6.50;2.10;;;;;;;16.20;100.00;100544.69;5498066;26;20009;-74
2024/04/09 10:02:24;;;;;;;5.03;1.30;;;;;;;16.34;100.00;100551.44;5497784;26;20064;-79
2024/04/09 10:04:50;;;;;;;3.65;1.17;;;;;;;16.37;100.00;100544.72;5530907;25;20065;-75
2024/04/09 10:07:18;;;;;;;3.47;1.30;;;;;;;16.26;100.00;100518.44;5531375;25;20001;-76
2024/04/09 10:09:44;;;;;;;3.80;1.42;;;;;;;16.28;100.00;100541.56;5530856;25;20061;-76
2024/04/09 10:12:23;;;;;;;5.22;1.33;;;;;;;16.13;100.00;100514.97;5498177;26;20323;-78
2024/04/09 10:15:07;;;;;;;4.50;1.27;;;;;;;15.72;100.00;100478.88;5467398;26;20431;-76
2024/04/09 10:18:03;;;;;;;6.10;1.20;;;;;;;15.65;100.00;100496.34;5533012;25;19994;-75
2024/04/09 10:20:30;;;;;;;4.75;1.00;;;;;;;15.51;100.00;100510.16;5500431;26;20344;-75
2024/04/09 10:23:01;;;;;;;4.05;1.13;;;;;;;15.41;100.00;100515.38;5505197;26;19996;-75
2024/04/09 10:25:31;;;;;;;6.60;1.42;;;;;;;15.45;100.00;100513.81;5540719;25;19997;-73
2024/04/09 10:28:10;;;;;;;4.60;1.27;;;;;;;15.36;100.00;100520.66;5532298;26;20452;-73
2024/04/09 10:30:40;;;;;;;5.32;1.33;;;;;;;15.29;100.00;100522.69;5466246;26;20045;-76
2024/04/09 10:33:07;;;;;;;7.18;1.40;;;;;;;15.34;100.00;100527.41;5498495;26;20407;-77
2024/04/09 10:35:33;;;;;;;6.13;1.42;;;;;;;15.15;100.00;100505.03;5530759;26;20340;-75
2024/04/09 10:38:04;;;;;;;3.10;1.30;;;;;;;15.18;100.00;100532.47;5530560;25;20001;-77
2024/04/09 10:40:33;;;;;;;7.28;1.23;;;;;;;15.20;100.00;100522.25;5531446;25;20012;-75
2024/04/09 10:43:02;;;;;;;6.28;1.58;;;;;;;15.10;100.00;100519.28;5530632;26;20530;-76
2024/04/09 10:45:29;;;;;;;4.03;1.02;;;;;;;15.22;100.00;100533.66;5531318;26;20606;-78
2024/04/09 10:47:55;;;;;;;6.22;1.23;;;;;;;15.09;100.00;100536.59;5499347;26;19994;-80
2024/04/09 10:50:21;;;;;;;2.40;1.00;;;;;;;15.17;100.00;100530.03;5531454;26;19997;-74
2024/04/09 10:52:46;;;;;;;7.32;1.48;;;;;;;15.09;100.00;100501.38;5531370;26;20340;-76
2024/04/09 10:55:13;;;;;;;3.90;1.25;;;;;;;15.12;100.00;100509.03;5499020;25;19990;-78
2024/04/09 10:57:39;;;;;;;6.07;1.08;;;;;;;15.04;100.00;100499.38;5531409;25;20039;-77
2024/04/09 11:00:10;;;;;;;4.35;1.15;;;;;;;15.08;100.00;100501.63;5498545;26;20411;-75
2024/04/09 11:02:37;;;;;;;6.47;1.17;;;;;;;15.06;100.00;100503.72;5499731;26;20004;-76
2024/04/09 11:05:04;;;;;;;8.15;1.55;;;;;;;15.09;100.00;100505.97;5469811;26;20039;-77
2024/04/09 11:07:34;;;;;;;3.17;1.40;;;;;;;14.92;100.00;100476.88;5499124;26;20008;-77
2024/04/09 11:10:00;;;;;;;5.43;1.30;;;;;;;14.86;100.00;100491.34;5498769;25;19998;-76
2024/04/09 11:12:27;;;;;;;4.53;1.17;;;;;;;14.85;100.00;100495.13;5532504;26;20001;-75
2024/04/09 11:14:56;;;;;;;7.85;1.70;;;;;;;14.93;100.00;100513.75;5500168;26;20021;-77
2024/04/09 11:17:22;;;;;;;6.22;1.33;;;;;;;14.96;100.00;100512.44;5532300;25;19997;-77